This is the latest recevied weather packets stored in our database for station/object OE3MNS-12. If no packets are shown the sender has not sent any weather packets the latest 10 day(s).
| Time | Temp. | Humidity | Pressure | Rain* | Wind** | Luminosity | Snow |
|---|---|---|---|---|---|---|---|
| 1778306117 | 12.22° C | 74% | 1020.2 hPa | 1.02 mm | - | 128 W/m² | - |
| 1778305519 | 12.22° C | 74% | 1020.2 hPa | 1.02 mm | - | 133 W/m² | - |
| 1778304921 | 11.67° C | 77% | 1020 hPa | 1.02 mm | - | 116 W/m² | - |
| 1778304318 | 11.67° C | 77% | 1020.1 hPa | 1.02 mm | - | 91 W/m² | - |
| 1778303720 | 10.56° C | 81% | 1020 hPa | 1.02 mm | - | 97 W/m² | - |
| 1778303420 | 10° C | 82% | 1020 hPa | 1.02 mm | - | 79 W/m² | - |
| 1778302817 | 9.44° C | 84% | 1019.8 hPa | 1.02 mm | - | 49 W/m² | - |
| 1778302219 | 8.89° C | 84% | 1019.6 hPa | 1.02 mm | - | 37 W/m² | - |
| 1778301621 | 8.33° C | 84% | 1019.6 hPa | 1.02 mm | - | 26 W/m² | - |
| 1778301018 | 8.33° C | 84% | 1019.6 hPa | 1.02 mm | - | 22 W/m² | - |
| 1778300419 | 8.33° C | 84% | 1019.4 hPa | 1.02 mm | - | 18 W/m² | - |
| 1778299821 | 8.33° C | 84% | 1019.5 hPa | 1.02 mm | - | 15 W/m² | - |
| 1778299517 | 8.33° C | 85% | 1019.4 hPa | 1.02 mm | - | 14 W/m² | - |
| 1778298919 | 8.33° C | 84% | 1019.3 hPa | 1.02 mm | - | 9 W/m² | - |
| 1778298321 | 8.33° C | 85% | 1019.3 hPa | 1.02 mm | - | 5 W/m² | - |
| 1778298017 | 8.33° C | 85% | 1019.3 hPa | 1.02 mm | - | 3 W/m² | - |
| 1778297418 | 8.89° C | 83% | 1019.3 hPa | 1.02 mm | - | 1 W/m² | - |
| 1778296820 | 8.89° C | 83% | 1019.2 hPa | 1.02 mm | - | 0 W/m² | - |
| 1778296217 | 8.89° C | 83% | 1019.3 hPa | 1.02 mm | - | 0 W/m² | - |
| 1778295619 | 8.89° C | 84% | 1019.3 hPa | 1.02 mm | - | 0 W/m² | - |
| 1778295021 | 8.89° C | 84% | 1019.2 hPa | 1.02 mm | - | 0 W/m² | - |
| 1778294417 | 8.89° C | 84% | 1019.2 hPa | 1.02 mm | - | 0 W/m² | - |
| 1778293819 | 8.89° C | 81% | 1019 hPa | 1.02 mm | - | 0 W/m² | - |
| 1778293221 | 9.44° C | 82% | 1019 hPa | 1.02 mm | - | 0 W/m² | - |
| 1778292618 | 9.44° C | 80% | 1019.1 hPa | 1.02 mm | - | 0 W/m² | - |
* Rain latest hour (hover to see other rain measurements)
** Current wind speed in m/s (hover to see current wind gust speed)